Terminal Aerodrome Forecast
Issued by NWS

Home | Current Version | Previous Version | Text Only | Print | Product List | Glossary On
Versions: 1 2 3 4 5 6 7 8 9 10 11 12 13 14 15 16 17 18 19 20 21 22 23 24 25
000
FTUS44 KHGX 291517 AAA
TAFSGR
TAF AMD
KSGR 291517Z 2915/3012 20007KT P6SM VCSH SCT025 BKN045
      TEMPO 2915/2916 VRB12KT SHRA
     FM291700 18010KT P6SM SCT050
     FM292300 17007KT P6SM SCT250
      TEMPO 3009/3012 BKN018=

USA.gov is the U.S. government's official web portal to all federal, state and local government web resources and services.